createdAt,value
2023-02-04T14:39:01.654Z,22.70
2023-02-04T14:46:35.663Z,18.42
2023-02-04T14:49:05.963Z,16.88
2023-02-04T14:51:36.211Z,13.07
2023-02-04T14:54:07.605Z,14.45
2023-02-04T14:56:38.630Z,13.90
2023-02-04T14:59:09.129Z,16.85
2023-02-04T15:01:39.565Z,13.63
2023-02-04T15:04:12.022Z,12.03
2023-02-04T15:06:42.462Z,14.27
2023-02-04T15:09:12.721Z,17.52
2023-02-04T15:11:42.870Z,12.20
2023-02-04T15:14:15.824Z,24.27
2023-02-04T15:16:53.306Z,17.58
2023-02-04T15:19:25.989Z,16.40
2023-02-04T15:21:56.391Z,18.45
2023-02-04T15:24:29.098Z,17.95
2023-02-04T15:26:59.336Z,14.38
2023-02-04T15:29:29.807Z,18.55
2023-02-04T15:32:00.287Z,16.30
2023-02-04T15:34:32.865Z,13.02
2023-02-04T15:37:12.420Z,15.23
2023-02-04T15:39:43.024Z,15.95
2023-02-04T15:42:13.495Z,19.17
2023-02-04T15:45:51.892Z,11.30
2023-02-04T15:47:40.265Z,10.68
2023-02-04T15:50:14.835Z,12.00
2023-02-04T15:52:45.000Z,11.73
2023-02-04T15:55:15.027Z,13.15
2023-02-04T15:57:45.317Z,11.35
2023-02-04T16:00:18.051Z,17.00
2023-02-04T16:02:48.475Z,13.25
2023-02-04T16:05:18.846Z,13.53
2023-02-04T16:07:49.154Z,14.45
2023-02-04T16:10:20.513Z,14.43
2023-02-04T16:12:50.922Z,15.48
2023-02-04T16:15:21.475Z,13.97
2023-02-04T16:17:51.814Z,15.00
2023-02-04T16:20:26.603Z,17.35
2023-02-04T16:22:56.884Z,15.98
2023-02-04T16:25:27.642Z,12.43
2023-02-04T16:27:57.978Z,15.75
2023-02-04T16:30:28.275Z,15.23
2023-02-04T16:32:58.735Z,15.05
2023-02-04T16:35:29.656Z,12.80
2023-02-04T16:38:00.056Z,11.82
2023-02-04T16:40:31.848Z,15.23
2023-02-04T16:43:04.310Z,14.07
2023-02-04T16:45:35.779Z,13.48
2023-02-04T16:48:06.005Z,15.13
2023-02-04T16:50:36.499Z,16.03
2023-02-04T16:53:08.072Z,14.15
2023-02-04T16:55:38.526Z,13.00
2023-02-04T16:58:09.936Z,14.47
2023-02-04T17:03:17.109Z,14.20
2023-02-04T17:05:47.255Z,16.50
2023-02-04T17:08:17.696Z,13.90
2023-02-04T17:11:06.339Z,14.23
2023-02-04T17:13:36.800Z,15.10
2023-02-04T17:16:07.156Z,15.27
2023-02-04T17:18:39.494Z,16.67
2023-02-04T17:21:11.481Z,19.13
2023-02-04T17:23:42.827Z,14.98
2023-02-04T17:26:13.202Z,16.27
2023-02-04T17:28:43.483Z,13.57
2023-02-04T17:31:13.869Z,15.35
2023-02-04T17:33:44.920Z,15.25
2023-02-04T17:36:17.587Z,15.80
2023-02-04T17:38:47.927Z,15.43
2023-02-04T17:41:17.869Z,14.55
2023-02-04T17:43:47.852Z,14.07
2023-02-04T17:46:18.208Z,14.95
2023-02-04T17:48:51.767Z,13.37
2023-02-04T17:51:22.131Z,17.15
2023-02-04T17:53:52.266Z,18.80
2023-02-04T17:56:26.005Z,14.00
2023-02-04T17:58:58.570Z,14.15
2023-02-04T18:01:28.863Z,12.20
2023-02-04T18:04:02.354Z,12.67
2023-02-04T18:06:33.177Z,15.13
2023-02-04T18:09:07.361Z,13.68
2023-02-04T18:11:42.431Z,17.75
2023-02-04T18:14:26.654Z,12.70
2023-02-04T18:17:00.986Z,14.10
2023-02-04T18:19:33.637Z,15.75
2023-02-04T18:22:08.189Z,15.90
2023-02-04T18:24:42.372Z,15.05
2023-02-04T18:27:26.461Z,15.82
2023-02-04T18:29:58.852Z,14.98
2023-02-04T18:32:36.365Z,15.63
2023-02-04T18:35:46.201Z,13.75
2023-02-04T18:38:25.452Z,12.60
2023-02-04T18:41:03.701Z,12.48
2023-02-04T18:43:40.448Z,13.40
2023-02-04T18:46:26.580Z,12.05
2023-02-04T18:49:06.062Z,12.18
2023-02-04T18:51:40.987Z,13.45
2023-02-04T18:54:28.789Z,14.73
2023-02-04T18:57:20.260Z,12.80
2023-02-04T19:02:25.869Z,13.43
2023-02-04T19:05:12.416Z,11.63
2023-02-04T19:07:43.630Z,11.40
2023-02-04T19:10:34.053Z,12.35
2023-02-04T19:13:28.225Z,11.38
2023-02-04T19:16:25.936Z,13.63
2023-02-04T19:18:57.439Z,11.88
2023-02-04T19:21:30.989Z,15.93
2023-02-04T19:24:22.432Z,12.80
2023-02-04T19:27:06.745Z,15.65
2023-02-04T19:29:44.709Z,13.60
2023-02-04T19:32:34.345Z,13.15
2023-02-04T19:35:19.775Z,12.77
2023-02-04T19:37:57.123Z,14.98
2023-02-04T19:40:35.975Z,12.65
2023-02-04T19:43:25.424Z,12.65
2023-02-04T19:45:56.212Z,13.73
2023-02-04T19:48:38.340Z,15.27
2023-02-04T19:51:30.945Z,14.45
2023-02-04T19:54:14.201Z,13.63
2023-02-04T19:56:44.172Z,12.35
2023-02-04T19:59:32.819Z,14.60
2023-02-04T20:02:09.788Z,12.27
2023-02-04T20:04:45.095Z,10.90
2023-02-04T20:07:27.426Z,13.65
2023-02-04T20:10:24.249Z,13.48
2023-02-04T20:13:03.080Z,14.27
2023-02-04T20:15:33.917Z,11.55
2023-02-04T20:18:17.164Z,15.93
2023-02-04T20:20:47.339Z,12.57
2023-02-04T20:23:35.181Z,14.00
2023-02-04T20:26:05.208Z,17.33
2023-02-04T20:28:42.332Z,15.18
2023-02-04T20:31:39.705Z,17.25
2023-02-04T20:34:20.870Z,13.05
2023-02-04T20:36:51.708Z,14.05
2023-02-04T20:39:42.167Z,15.77
2023-02-04T20:42:31.830Z,16.15
2023-02-04T20:45:15.243Z,15.68
2023-02-04T20:47:45.443Z,14.15
2023-02-04T20:50:41.115Z,16.63
2023-02-04T20:53:39.183Z,15.25
2023-02-04T20:56:28.949Z,13.98
2023-02-04T20:59:15.641Z,17.25
2023-02-04T21:01:53.517Z,16.27
2023-02-04T21:04:39.548Z,14.20
2023-02-04T21:07:24.621Z,14.05
2023-02-04T21:09:54.953Z,18.15
2023-02-04T21:12:28.474Z,14.77
2023-02-04T21:16:17.199Z,18.90
2023-02-04T21:17:49.841Z,16.98
2023-02-04T21:20:21.306Z,16.35
2023-02-04T21:28:16.371Z,15.55
2023-02-04T21:30:46.839Z,17.60
2023-02-04T21:33:17.270Z,17.88
2023-02-04T21:35:47.636Z,16.90
2023-02-04T21:38:17.703Z,17.10
2023-02-04T21:40:47.738Z,17.40
2023-02-04T21:45:59.974Z,18.65
2023-02-04T21:48:30.262Z,17.48
2023-02-04T21:51:01.773Z,20.25
2023-02-04T21:56:01.176Z,17.52
2023-02-04T21:58:31.487Z,18.08
2023-02-04T22:01:02.661Z,20.13
2023-02-04T22:03:32.814Z,17.48
2023-02-04T22:06:02.853Z,18.48
2023-02-04T22:08:32.642Z,17.30
2023-02-04T22:11:03.067Z,20.10
2023-02-04T22:13:51.350Z,20.45
2023-02-04T22:16:21.821Z,20.92
2023-02-04T22:18:51.895Z,18.75
2023-02-04T22:21:21.722Z,18.65
2023-02-04T22:23:54.810Z,19.27
2023-02-04T22:26:24.826Z,18.88
2023-02-04T22:28:56.333Z,23.08
2023-02-04T22:31:27.417Z,23.05
2023-02-04T22:33:57.532Z,24.17
2023-02-04T22:36:27.473Z,24.85
2023-02-04T22:38:57.515Z,25.48
2023-02-04T22:41:29.729Z,20.80
2023-02-04T22:43:59.703Z,25.77
2023-02-04T22:46:31.666Z,23.23
2023-02-04T22:49:01.680Z,21.42
2023-02-04T22:51:31.527Z,19.77
2023-02-04T22:54:02.557Z,21.38
2023-02-04T22:56:33.523Z,22.50
2023-02-04T22:59:04.230Z,21.02
2023-02-04T23:01:34.277Z,20.63
2023-02-04T23:04:04.257Z,20.20
2023-02-04T23:06:35.488Z,20.90
2023-02-04T23:09:05.778Z,21.65
2023-02-04T23:11:36.112Z,19.73
2023-02-04T23:14:10.511Z,21.27
2023-02-04T23:16:40.858Z,26.00
2023-02-04T23:19:10.983Z,20.77
2023-02-04T23:21:41.230Z,26.13
2023-02-04T23:24:11.371Z,27.45
2023-02-04T23:26:41.526Z,23.13
2023-02-04T23:29:11.465Z,22.63
2023-02-04T23:31:41.315Z,22.83
2023-02-04T23:34:11.175Z,25.52
2023-02-04T23:36:41.022Z,29.40
2023-02-04T23:39:10.889Z,24.92
2023-02-04T23:41:41.054Z,24.23
2023-02-04T23:44:12.236Z,24.42
2023-02-04T23:46:42.827Z,28.13
2023-02-04T23:49:13.218Z,30.67
2023-02-04T23:51:43.266Z,35.45
2023-02-04T23:54:13.220Z,34.67
2023-02-04T23:56:43.254Z,37.47
2023-02-04T23:59:13.155Z,36.88
